Friday, July 20, 2018, 4:48 AM EDT
Back to Local

KBTP, Butler, Butler County Airport/k W Scholter Field

Location: Renfrew, PA, United States Lat: 40.783
Local Time: 4:48 AM EDT ( 8:48 GMT) Lon: -79.95
Time Zone: US/Eastern Elev: 1246 ft

Show me the last for .
Show Coded

Time T Td Feel RH Dir Speed Gust Alt SLP Vis Weather Sky Remarks
2018-07-20 03:56 67 58 - 72 120° 5 - 30.05 30.03 10 BKN070 None
2018-07-20 02:56 66 58 - 75 120° 7 - 30.05 30.04 10 FEW070 None
2018-07-20 01:56 67 58 - 72 110° 6 - 30.05 30.04 10 CLR 6-hr Min Temp (2am): 66.9°F
6-hr Max Temp (2am): 79.0°F
2018-07-20 00:56 69 59 - 70 120° 6 - 30.06 30.06 10 CLR 24-hr Min Temp (1am): 53.1°F
24-hr Max Temp (1am): 82.9°F
2018-07-19 23:56 71 59 76 65 120° 6 - 30.07 30.05 10 CLR None
2018-07-19 22:56 71 59 76 65 110° 6 - 30.06 30.05 10 CLR None
2018-07-19 21:56 69 59 - 70 80° 5 - 30.05 30.04 10 CLR None
2018-07-19 20:56 75 57 77 53 100° 3 - 30.05 30.04 10 CLR None
2018-07-19 19:56 79 56 80 45 120° 3 - 30.05 30.04 10 CLR 6-hr Min Temp (8pm): 79.0°F
6-hr Max Temp (8pm): 82.9°F
2018-07-19 18:56 81 55 81 41 150° 7 - 30.05 30.05 10 CLR None
2018-07-19 17:56 82 56 82 40 Variable 6 - 30.06 30.06 10 CLR None
2018-07-19 16:56 82 57 82 42 Variable 5 - 30.07 30.06 10 CLR None
2018-07-19 15:56 82 56 82 40 100° 8 - 30.08 30.07 10 CLR None
2018-07-19 14:56 81 56 81 42 Variable 6 - 30.09 30.09 10 FEW055 None
2018-07-19 13:56 81 55 81 41 - Calm - 30.10 30.10 10 CLR 6-hr Min Temp (2pm): 62.1°F
6-hr Max Temp (2pm): 81.0°F
2018-07-19 12:56 78 54 79 43 150° 8 - 30.12 30.12 10 CLR None
2018-07-19 11:56 78 54 79 43 Variable 5 - 30.13 30.12 10 FEW050 None
2018-07-19 10:56 76 56 78 50 110° 6 - 30.14 30.14 10 CLR None
2018-07-19 09:56 72 58 76 61 20° 3 - 30.14 30.13 10 CLR None
2018-07-19 08:56 68 57 - 67 80° 6 - 30.14 30.14 10 CLR None
2018-07-19 07:56 62 57 - 83 40° 3 - 30.13 30.12 10 CLR 6-hr Min Temp (8am): 53.1°F
6-hr Max Temp (8am): 62.1°F
2018-07-19 06:56 56 54 - 93 50° 5 - 30.12 30.12 10 CLR None
2018-07-19 05:56 53 52 - 96 40° 6 - 30.12 30.12 10 CLR None
2018-07-19 04:56 54 53 - 96 - Calm - 30.12 30.12 10 CLR None

Support USWX by starting your Amazon purchase here.